createdAt,value
2017-10-06T00:00:34.438Z,11.06
2017-10-06T00:03:01.995Z,10.94
2017-10-06T00:05:29.555Z,10.99
2017-10-06T00:07:57.304Z,10.90
2017-10-06T00:10:24.836Z,10.95
2017-10-06T00:12:52.368Z,10.90
2017-10-06T00:15:20.100Z,10.81
2017-10-06T00:17:47.628Z,10.76
2017-10-06T00:20:15.373Z,10.67
2017-10-06T00:22:43.403Z,10.60
2017-10-06T00:25:10.950Z,10.57
2017-10-06T00:27:38.480Z,10.58
2017-10-06T00:30:06.376Z,10.52
2017-10-06T00:32:34.025Z,10.58
2017-10-06T00:35:01.597Z,10.66
2017-10-06T00:37:29.563Z,10.56
2017-10-06T00:39:57.124Z,10.67
2017-10-06T00:42:24.675Z,10.75
2017-10-06T00:44:52.447Z,10.68
2017-10-06T00:47:20.046Z,10.65
2017-10-06T00:49:47.564Z,10.84
2017-10-06T00:52:15.311Z,10.77
2017-10-06T00:54:42.840Z,10.77
2017-10-06T00:57:10.388Z,10.94
2017-10-06T00:59:38.300Z,10.94
2017-10-06T01:02:05.872Z,10.97
2017-10-06T01:04:33.403Z,10.93
2017-10-06T01:07:01.182Z,10.88
2017-10-06T01:09:28.703Z,10.81
2017-10-06T01:11:56.232Z,10.78
2017-10-06T01:14:23.808Z,10.66
2017-10-06T01:16:51.339Z,10.47
2017-10-06T01:19:19.810Z,10.48
2017-10-06T01:21:47.588Z,10.49
2017-10-06T01:24:15.132Z,10.43
2017-10-06T01:26:42.707Z,10.38
2017-10-06T01:29:10.283Z,10.36
2017-10-06T01:31:37.844Z,10.31
2017-10-06T01:34:05.368Z,10.30
2017-10-06T01:36:33.276Z,10.39
2017-10-06T01:39:00.795Z,10.26
2017-10-06T01:41:28.354Z,10.22
2017-10-06T01:43:55.911Z,10.20
2017-10-06T01:46:23.472Z,10.14
2017-10-06T01:48:51.031Z,10.22
2017-10-06T01:51:18.590Z,10.25
2017-10-06T01:53:46.148Z,10.24
2017-10-06T01:56:13.714Z,10.22
2017-10-06T01:58:41.456Z,10.16
2017-10-06T02:01:08.984Z,10.19
2017-10-06T02:03:36.591Z,10.17
2017-10-06T02:06:04.140Z,10.04
2017-10-06T02:08:31.716Z,9.90
2017-10-06T02:10:59.267Z,9.99
2017-10-06T02:13:27.080Z,9.96
2017-10-06T02:15:54.629Z,9.92
2017-10-06T02:18:22.384Z,9.98
2017-10-06T02:20:50.030Z,10.09
2017-10-06T02:23:17.575Z,9.98
2017-10-06T02:25:45.149Z,9.90
2017-10-06T02:28:12.724Z,9.74
2017-10-06T02:30:40.252Z,9.64
2017-10-06T02:33:07.814Z,9.68
2017-10-06T02:35:35.358Z,9.70
2017-10-06T02:38:02.992Z,9.57
2017-10-06T02:40:30.518Z,9.53
2017-10-06T02:42:58.256Z,9.46
2017-10-06T02:45:25.775Z,9.45
2017-10-06T02:47:53.299Z,9.24
2017-10-06T02:50:21.026Z,9.25
2017-10-06T02:52:48.592Z,9.30
2017-10-06T02:55:16.152Z,9.34
2017-10-06T02:57:43.725Z,9.28
2017-10-06T03:00:11.268Z,9.28
2017-10-06T03:02:38.828Z,9.15
2017-10-06T03:05:06.591Z,9.18
2017-10-06T03:07:34.322Z,9.10
2017-10-06T03:10:01.889Z,9.11
2017-10-06T03:12:29.595Z,9.09
2017-10-06T03:14:57.135Z,9.18
2017-10-06T03:17:24.694Z,9.27
2017-10-06T03:19:52.356Z,9.26
2017-10-06T03:22:19.876Z,9.49
2017-10-06T03:24:47.395Z,9.52
2017-10-06T03:27:15.251Z,9.60
2017-10-06T03:29:42.796Z,9.69
2017-10-06T03:32:10.313Z,9.62
2017-10-06T03:34:38.155Z,9.53
2017-10-06T03:37:05.671Z,9.53
2017-10-06T03:39:33.235Z,9.45
2017-10-06T03:42:01.108Z,9.35
2017-10-06T03:44:28.620Z,9.27
2017-10-06T03:46:56.143Z,9.29
2017-10-06T03:49:23.864Z,9.24
2017-10-06T03:51:51.443Z,9.22
2017-10-06T03:54:18.964Z,9.32
2017-10-06T03:56:46.765Z,9.41
2017-10-06T03:59:14.325Z,9.35
2017-10-06T04:01:41.885Z,9.37
2017-10-06T04:04:09.632Z,9.59
2017-10-06T04:06:37.156Z,9.53
2017-10-06T04:09:04.846Z,9.58
2017-10-06T04:11:32.619Z,9.61
2017-10-06T04:14:00.139Z,9.59
2017-10-06T04:16:27.688Z,9.64
2017-10-06T04:18:55.391Z,9.60
2017-10-06T04:21:22.972Z,9.62
2017-10-06T04:23:50.531Z,9.73
2017-10-06T04:26:18.275Z,9.71
2017-10-06T04:28:45.853Z,9.66
2017-10-06T04:31:13.414Z,9.76
2017-10-06T04:33:40.984Z,9.55
2017-10-06T04:36:08.530Z,9.69
2017-10-06T04:38:36.090Z,9.84
2017-10-06T04:41:04.040Z,9.86
2017-10-06T04:43:31.561Z,9.78
2017-10-06T04:45:59.585Z,9.63
2017-10-06T04:48:27.132Z,9.68
2017-10-06T04:50:54.705Z,9.74
2017-10-06T04:53:22.224Z,9.75
2017-10-06T04:55:49.822Z,9.61
2017-10-06T04:58:17.380Z,9.73
2017-10-06T05:00:45.023Z,9.79
2017-10-06T05:03:12.592Z,9.56
2017-10-06T05:05:40.110Z,9.69
2017-10-06T05:08:07.644Z,9.62
2017-10-06T05:10:35.380Z,9.64
2017-10-06T05:13:02.941Z,9.69
2017-10-06T05:15:30.501Z,9.58
2017-10-06T05:17:58.064Z,9.62
2017-10-06T05:20:25.630Z,9.76
2017-10-06T05:22:53.177Z,9.83
2017-10-06T05:25:21.043Z,9.87
2017-10-06T05:27:48.645Z,9.90
2017-10-06T05:30:16.171Z,9.93
2017-10-06T05:32:43.822Z,9.81
2017-10-06T05:35:11.383Z,9.87
2017-10-06T05:37:38.940Z,9.83
2017-10-06T05:40:06.687Z,9.85
2017-10-06T05:42:34.212Z,9.87
2017-10-06T05:45:01.745Z,10.04
2017-10-06T05:47:29.689Z,9.92
2017-10-06T05:49:57.217Z,9.67
2017-10-06T05:52:24.736Z,9.94
2017-10-06T05:54:52.673Z,9.74
2017-10-06T05:57:20.234Z,9.68
2017-10-06T05:59:47.808Z,9.69
2017-10-06T06:02:15.536Z,9.81
2017-10-06T06:04:43.059Z,9.92
2017-10-06T06:07:10.583Z,9.80
2017-10-06T06:09:38.130Z,9.88
2017-10-06T06:12:05.691Z,9.92
2017-10-06T06:14:33.248Z,10.00
2017-10-06T06:17:01.934Z,9.85
2017-10-06T06:19:29.514Z,9.92
2017-10-06T06:21:57.066Z,9.99
2017-10-06T06:24:24.612Z,9.91
2017-10-06T06:26:52.170Z,10.08
2017-10-06T06:29:19.741Z,10.05
2017-10-06T06:31:48.218Z,10.09
2017-10-06T06:34:15.769Z,9.87
2017-10-06T06:36:44.353Z,10.00
2017-10-06T06:39:11.916Z,9.94
2017-10-06T06:41:39.471Z,10.01
2017-10-06T06:44:07.033Z,10.08
2017-10-06T06:46:35.308Z,10.10
2017-10-06T06:49:02.840Z,10.05
2017-10-06T06:51:30.426Z,10.33
2017-10-06T06:53:58.197Z,10.17
2017-10-06T06:56:25.719Z,10.14
2017-10-06T06:58:53.244Z,10.37
2017-10-06T07:01:20.866Z,10.42
2017-10-06T07:03:48.425Z,10.32
2017-10-06T07:06:15.983Z,10.31
2017-10-06T07:08:43.737Z,10.60
2017-10-06T07:11:11.310Z,10.74
2017-10-06T07:13:38.859Z,10.72
2017-10-06T07:16:06.453Z,10.68
2017-10-06T07:18:34.041Z,10.64
2017-10-06T07:21:01.560Z,10.58
2017-10-06T07:23:29.259Z,10.51
2017-10-06T07:25:56.791Z,10.81
2017-10-06T07:28:24.313Z,10.83
2017-10-06T07:30:52.093Z,11.23
2017-10-06T07:33:19.611Z,11.32
2017-10-06T07:35:47.143Z,11.57
2017-10-06T07:38:14.888Z,11.85
2017-10-06T07:40:42.416Z,12.14
2017-10-06T07:43:09.937Z,12.02
2017-10-06T07:45:37.797Z,12.46
2017-10-06T07:48:05.324Z,12.53
2017-10-06T07:50:32.855Z,12.51
2017-10-06T07:53:00.787Z,12.58
2017-10-06T07:55:28.310Z,12.70
2017-10-06T07:57:55.845Z,12.81
2017-10-06T08:00:23.405Z,12.79
2017-10-06T08:02:50.968Z,12.95
2017-10-06T08:05:18.801Z,13.35
2017-10-06T08:07:46.701Z,13.59
2017-10-06T08:10:14.223Z,13.63
2017-10-06T08:12:42.461Z,13.45
2017-10-06T08:15:10.900Z,13.21
2017-10-06T08:17:38.474Z,13.67
2017-10-06T08:20:05.996Z,13.46
2017-10-06T08:22:33.797Z,13.55
2017-10-06T08:25:01.327Z,13.55
2017-10-06T08:27:28.865Z,13.98
2017-10-06T08:29:56.568Z,14.05
2017-10-06T08:32:24.134Z,14.43
2017-10-06T08:34:51.694Z,14.45
2017-10-06T08:37:19.443Z,14.59
2017-10-06T08:39:46.965Z,15.06
2017-10-06T08:42:14.490Z,16.18
2017-10-06T08:44:42.340Z,16.61
2017-10-06T08:47:09.920Z,16.36
2017-10-06T08:49:37.460Z,16.08
2017-10-06T08:52:05.308Z,15.83
2017-10-06T08:54:32.836Z,15.98
2017-10-06T08:57:00.392Z,16.06
2017-10-06T08:59:28.206Z,16.20
2017-10-06T09:01:55.772Z,16.01
2017-10-06T09:04:23.325Z,15.65
2017-10-06T09:06:50.900Z,15.13
2017-10-06T09:09:18.466Z,15.28
2017-10-06T09:11:45.991Z,15.70
2017-10-06T09:14:13.669Z,15.55
2017-10-06T09:16:41.184Z,15.43
2017-10-06T09:19:08.700Z,16.19
2017-10-06T09:21:36.342Z,17.62
2017-10-06T09:24:04.413Z,19.13
2017-10-06T09:26:31.970Z,21.22
2017-10-06T09:28:59.735Z,21.88
2017-10-06T09:31:27.255Z,22.14
2017-10-06T09:33:54.781Z,23.26
2017-10-06T09:36:22.516Z,22.95
2017-10-06T09:38:50.075Z,22.86
2017-10-06T09:41:17.604Z,22.18
2017-10-06T09:43:45.193Z,21.56
2017-10-06T09:46:12.752Z,20.53
2017-10-06T09:48:40.311Z,19.43
2017-10-06T09:51:07.873Z,19.45
2017-10-06T09:53:35.428Z,19.20
2017-10-06T09:56:02.950Z,19.56
2017-10-06T09:58:30.634Z,19.33
2017-10-06T10:00:58.256Z,19.13
2017-10-06T10:03:25.776Z,17.99
2017-10-06T10:05:53.516Z,17.24
2017-10-06T10:08:21.051Z,18.56
2017-10-06T10:10:49.571Z,21.13
2017-10-06T10:13:17.166Z,23.23
2017-10-06T10:15:44.696Z,23.34
2017-10-06T10:18:12.217Z,21.31
2017-10-06T10:20:39.910Z,19.03
2017-10-06T10:23:07.478Z,18.52
2017-10-06T10:25:35.003Z,18.47
2017-10-06T10:28:02.672Z,18.14
2017-10-06T10:30:30.197Z,17.92
2017-10-06T10:32:57.720Z,19.89
2017-10-06T10:35:25.279Z,19.78
2017-10-06T10:37:52.822Z,19.06
2017-10-06T10:40:20.343Z,18.31
2017-10-06T10:42:48.153Z,21.39
2017-10-06T10:45:15.705Z,25.43
2017-10-06T10:47:43.266Z,23.46
2017-10-06T10:50:11.029Z,21.26
2017-10-06T10:52:38.602Z,19.30
2017-10-06T10:55:06.129Z,18.69
2017-10-06T10:57:34.040Z,18.16
2017-10-06T11:00:01.555Z,17.35
2017-10-06T11:02:29.084Z,17.30
2017-10-06T11:04:56.646Z,17.63
2017-10-06T11:07:24.168Z,18.02
2017-10-06T11:09:51.688Z,17.18
2017-10-06T11:12:19.396Z,16.85
2017-10-06T11:17:21.243Z,16.20
2017-10-06T11:19:48.825Z,16.06
2017-10-06T11:22:16.516Z,15.70
2017-10-06T11:24:44.324Z,15.90
2017-10-06T11:27:11.903Z,16.40
2017-10-06T11:29:39.465Z,16.46
2017-10-06T11:32:07.449Z,16.44
2017-10-06T11:34:35.205Z,15.95
2017-10-06T11:37:02.949Z,16.31
2017-10-06T11:39:30.577Z,16.55
2017-10-06T11:41:58.166Z,16.43
2017-10-06T11:44:25.726Z,16.54
2017-10-06T11:46:53.489Z,15.90
2017-10-06T11:49:21.069Z,15.41
2017-10-06T11:51:48.914Z,14.85
2017-10-06T11:54:16.987Z,15.34
2017-10-06T11:56:44.779Z,15.78
2017-10-06T11:59:12.653Z,15.69
2017-10-06T12:01:41.302Z,16.21
2017-10-06T12:04:09.071Z,20.49
2017-10-06T12:06:37.046Z,21.74
2017-10-06T12:09:05.722Z,21.39
2017-10-06T12:11:33.587Z,20.18
2017-10-06T12:14:01.307Z,18.70
2017-10-06T12:16:29.116Z,17.71
2017-10-06T12:18:56.868Z,16.82
2017-10-06T12:21:24.540Z,15.94
2017-10-06T12:23:52.494Z,15.30
2017-10-06T12:26:20.071Z,14.50
2017-10-06T12:28:47.767Z,14.00
2017-10-06T12:31:15.813Z,13.43
2017-10-06T12:33:43.589Z,13.03
2017-10-06T12:36:11.327Z,12.73
2017-10-06T12:38:39.048Z,12.71
2017-10-06T12:41:06.673Z,12.89
2017-10-06T12:43:34.423Z,13.11
2017-10-06T12:46:02.488Z,13.81
2017-10-06T12:48:30.263Z,14.76
2017-10-06T12:50:57.822Z,15.27
2017-10-06T12:53:25.423Z,14.63
2017-10-06T12:55:53.441Z,14.94
2017-10-06T12:58:21.409Z,16.56
2017-10-06T13:00:49.494Z,16.47
2017-10-06T13:03:17.161Z,16.28
2017-10-06T13:05:44.699Z,17.10
2017-10-06T13:08:12.873Z,17.01
2017-10-06T13:10:40.544Z,16.54
2017-10-06T13:13:08.290Z,15.83
2017-10-06T13:15:36.294Z,15.66
2017-10-06T13:18:03.972Z,15.89
2017-10-06T13:20:31.830Z,15.74
2017-10-06T13:22:59.723Z,16.01
2017-10-06T13:25:27.424Z,15.96
2017-10-06T13:27:55.090Z,16.23
2017-10-06T13:30:23.081Z,16.23
2017-10-06T13:32:51.433Z,15.97
2017-10-06T13:35:19.217Z,16.10
2017-10-06T13:37:47.063Z,15.90
2017-10-06T13:40:14.726Z,16.05
2017-10-06T13:42:42.491Z,16.30
2017-10-06T13:45:10.662Z,16.00
2017-10-06T13:47:38.457Z,15.29
2017-10-06T13:50:06.175Z,15.40
2017-10-06T13:52:34.261Z,15.38
2017-10-06T13:55:02.641Z,15.29
2017-10-06T13:57:31.120Z,15.07
2017-10-06T13:59:59.310Z,15.16
2017-10-06T14:02:27.127Z,15.62
2017-10-06T14:04:55.231Z,15.83
2017-10-06T14:07:23.316Z,15.83
2017-10-06T14:09:51.169Z,15.36
2017-10-06T14:12:18.958Z,15.16
2017-10-06T14:14:46.836Z,15.18
2017-10-06T14:17:14.627Z,15.42
2017-10-06T14:19:42.449Z,15.74
2017-10-06T14:22:10.708Z,15.34
2017-10-06T14:24:38.388Z,15.10
2017-10-06T14:27:06.234Z,14.85
2017-10-06T14:29:34.124Z,14.59
2017-10-06T14:32:01.864Z,14.67
2017-10-06T14:34:29.579Z,14.23
2017-10-06T14:36:57.493Z,14.62
2017-10-06T14:39:25.274Z,14.24
2017-10-06T14:41:53.040Z,14.71
2017-10-06T14:44:21.194Z,14.36
2017-10-06T14:46:48.964Z,14.37
2017-10-06T14:49:16.722Z,14.48
2017-10-06T14:51:44.693Z,14.11
2017-10-06T14:54:12.455Z,14.22
2017-10-06T14:56:40.021Z,14.18
2017-10-06T14:59:07.881Z,13.86
2017-10-06T15:01:35.439Z,14.11
2017-10-06T15:04:03.100Z,13.92
2017-10-06T15:06:30.867Z,13.73
2017-10-06T15:08:58.464Z,14.24
2017-10-06T15:11:26.012Z,14.46
2017-10-06T15:13:53.749Z,14.42
2017-10-06T15:16:21.409Z,14.46
2017-10-06T15:18:48.968Z,14.23
2017-10-06T15:21:16.569Z,14.55
2017-10-06T15:23:44.195Z,14.27
2017-10-06T15:26:11.746Z,14.57
2017-10-06T15:28:39.512Z,14.38
2017-10-06T15:31:07.175Z,14.04
2017-10-06T15:33:34.731Z,14.05
2017-10-06T15:36:02.391Z,14.13
2017-10-06T15:38:29.965Z,14.42
2017-10-06T15:40:58.091Z,14.48
2017-10-06T15:43:25.910Z,14.04
2017-10-06T15:45:53.439Z,14.06
2017-10-06T15:48:21.031Z,13.95
2017-10-06T15:50:48.874Z,13.94
2017-10-06T15:53:16.411Z,13.62
2017-10-06T15:55:43.993Z,13.38
2017-10-06T15:58:12.064Z,13.36
2017-10-06T16:00:39.950Z,13.15
2017-10-06T16:03:07.753Z,13.04
2017-10-06T16:05:35.558Z,13.06
2017-10-06T16:08:03.134Z,13.25
2017-10-06T16:10:30.733Z,13.19
2017-10-06T16:12:58.579Z,13.12
2017-10-06T16:15:26.429Z,12.98
2017-10-06T16:17:54.281Z,13.00
2017-10-06T16:20:21.860Z,13.05
2017-10-06T16:22:49.418Z,13.04
2017-10-06T16:25:16.977Z,13.11
2017-10-06T16:27:44.618Z,13.01
2017-10-06T16:30:12.171Z,13.04
2017-10-06T16:32:39.729Z,12.95
2017-10-06T16:35:07.497Z,12.76
2017-10-06T16:37:35.040Z,12.75
2017-10-06T16:40:02.608Z,12.57
2017-10-06T16:42:30.585Z,12.56
2017-10-06T16:44:58.249Z,12.70
2017-10-06T16:47:25.825Z,12.71
2017-10-06T16:49:53.391Z,12.49
2017-10-06T16:52:20.952Z,12.50
2017-10-06T16:54:48.486Z,12.34
2017-10-06T16:57:16.144Z,12.31
2017-10-06T16:59:43.808Z,12.34
2017-10-06T17:02:11.655Z,12.34
2017-10-06T17:04:39.258Z,12.41
2017-10-06T17:07:06.809Z,12.29
2017-10-06T17:09:34.453Z,12.55
2017-10-06T17:12:03.131Z,12.47
2017-10-06T17:14:30.684Z,12.60
2017-10-06T17:16:58.358Z,12.64
2017-10-06T17:19:26.064Z,12.51
2017-10-06T17:21:53.596Z,12.51
2017-10-06T17:24:21.145Z,12.36
2017-10-06T17:26:49.016Z,12.28
2017-10-06T17:29:17.823Z,12.25
2017-10-06T17:31:45.766Z,12.08
2017-10-06T17:34:13.939Z,12.25
2017-10-06T17:36:42.437Z,12.25
2017-10-06T17:39:10.522Z,12.29
2017-10-06T17:41:38.883Z,12.30
2017-10-06T17:44:06.832Z,12.38
2017-10-06T17:46:34.391Z,12.38
2017-10-06T17:49:02.360Z,12.36
2017-10-06T17:51:30.330Z,12.30
2017-10-06T17:53:58.194Z,12.22
2017-10-06T17:56:25.964Z,12.12
2017-10-06T17:58:54.395Z,11.85
2017-10-06T18:01:22.308Z,11.93
2017-10-06T18:03:50.559Z,11.90
2017-10-06T18:06:18.369Z,11.82
2017-10-06T18:08:46.109Z,11.99
2017-10-06T18:11:14.129Z,12.08
2017-10-06T18:13:42.317Z,11.81
2017-10-06T18:16:10.479Z,11.92
2017-10-06T18:18:38.565Z,11.87
2017-10-06T18:21:06.466Z,11.74
2017-10-06T18:23:34.449Z,11.71
2017-10-06T18:26:02.199Z,11.62
2017-10-06T18:28:29.962Z,11.63
2017-10-06T18:30:59.463Z,11.47
2017-10-06T18:33:28.509Z,11.45
2017-10-06T18:35:56.783Z,11.39
2017-10-06T18:38:25.475Z,11.43
2017-10-06T18:40:54.939Z,11.40
2017-10-06T18:43:23.054Z,11.45
2017-10-06T18:45:51.674Z,11.50
2017-10-06T18:48:20.626Z,11.52
2017-10-06T18:50:49.186Z,11.40
2017-10-06T18:53:17.364Z,11.56
2017-10-06T18:55:45.740Z,11.53
2017-10-06T18:58:13.892Z,11.59
2017-10-06T19:00:42.209Z,11.59
2017-10-06T19:03:10.479Z,11.72
2017-10-06T19:05:38.304Z,11.75
2017-10-06T19:08:06.573Z,11.80
2017-10-06T19:10:35.524Z,11.81
2017-10-06T19:13:04.390Z,11.82
2017-10-06T19:15:32.938Z,11.83
2017-10-06T19:18:01.246Z,11.86
2017-10-06T19:20:29.744Z,11.71
2017-10-06T19:22:58.550Z,11.79
2017-10-06T19:25:27.407Z,11.91
2017-10-06T19:27:56.086Z,11.70
2017-10-06T19:30:24.864Z,11.93
2017-10-06T19:32:53.243Z,12.05
2017-10-06T19:35:21.340Z,12.05
2017-10-06T19:37:50.201Z,12.10
2017-10-06T19:40:19.623Z,12.11
2017-10-06T19:42:47.459Z,12.07
2017-10-06T19:45:16.213Z,12.04
2017-10-06T19:47:44.993Z,11.89
2017-10-06T19:50:13.479Z,12.09
2017-10-06T19:52:41.866Z,12.29
2017-10-06T19:55:11.327Z,12.22
2017-10-06T19:57:39.867Z,12.16
2017-10-06T20:00:08.244Z,11.95
2017-10-06T20:02:36.875Z,12.26
2017-10-06T20:05:05.618Z,11.99
2017-10-06T20:07:34.669Z,12.04
2017-10-06T20:10:04.023Z,12.00
2017-10-06T20:12:32.435Z,12.04
2017-10-06T20:15:02.144Z,11.93
2017-10-06T20:17:30.974Z,12.24
2017-10-06T20:19:59.630Z,12.12
2017-10-06T20:22:29.604Z,12.24
2017-10-06T20:24:58.572Z,12.20
2017-10-06T20:27:27.857Z,12.04
2017-10-06T20:29:56.285Z,12.31
2017-10-06T20:32:25.646Z,12.22
2017-10-06T20:34:55.754Z,12.25
2017-10-06T20:37:24.441Z,12.18
2017-10-06T20:39:53.777Z,12.32
2017-10-06T20:42:22.211Z,12.32
2017-10-06T20:44:51.012Z,12.22
2017-10-06T20:47:20.545Z,12.10
2017-10-06T20:49:49.394Z,12.13
2017-10-06T20:52:18.139Z,11.99
2017-10-06T20:54:46.326Z,11.97
2017-10-06T20:57:14.486Z,12.02
2017-10-06T20:59:43.490Z,11.93
2017-10-06T21:02:11.509Z,11.85
2017-10-06T21:04:39.915Z,11.82
2017-10-06T21:07:09.085Z,11.96
2017-10-06T21:09:38.038Z,12.10
2017-10-06T21:12:06.965Z,12.13
2017-10-06T21:14:35.520Z,11.92
2017-10-06T21:17:03.566Z,12.19
2017-10-06T21:19:31.815Z,12.19
2017-10-06T21:22:00.995Z,12.25
2017-10-06T21:24:30.110Z,12.35
2017-10-06T21:26:58.084Z,12.29
2017-10-06T21:29:26.963Z,12.17
2017-10-06T21:31:55.800Z,12.05
2017-10-06T21:34:24.381Z,12.26
2017-10-06T21:36:53.015Z,12.16
2017-10-06T21:39:21.725Z,12.16
2017-10-06T21:41:50.260Z,12.08
2017-10-06T21:44:18.844Z,12.02
2017-10-06T21:46:47.000Z,12.01
2017-10-06T21:49:15.311Z,12.09
2017-10-06T21:51:43.655Z,11.96
2017-10-06T21:54:12.203Z,11.70
2017-10-06T21:56:40.198Z,11.63
2017-10-06T21:59:08.849Z,11.55
2017-10-06T22:01:37.039Z,11.54
2017-10-06T22:04:05.486Z,11.30
2017-10-06T22:06:34.229Z,11.43
2017-10-06T22:09:02.471Z,11.20
2017-10-06T22:11:30.331Z,11.17
2017-10-06T22:13:58.774Z,11.15
2017-10-06T22:16:26.704Z,11.16
2017-10-06T22:18:54.688Z,11.17
2017-10-06T22:21:23.073Z,11.14
2017-10-06T22:23:51.521Z,11.13
2017-10-06T22:26:19.656Z,11.05
2017-10-06T22:28:48.009Z,11.14
2017-10-06T22:31:15.927Z,11.09
2017-10-06T22:33:44.112Z,11.13
2017-10-06T22:36:12.514Z,11.08
2017-10-06T22:38:40.643Z,10.96
2017-10-06T22:41:08.645Z,11.12
2017-10-06T22:43:36.790Z,11.01
2017-10-06T22:46:04.849Z,11.06
2017-10-06T22:48:32.839Z,11.04
2017-10-06T22:51:01.292Z,10.94
2017-10-06T22:53:29.331Z,11.03
2017-10-06T22:55:57.334Z,10.90
2017-10-06T22:58:25.342Z,10.78
2017-10-06T23:00:56.781Z,10.81
2017-10-06T23:03:24.737Z,10.73
2017-10-06T23:05:52.927Z,10.71
2017-10-06T23:08:21.124Z,10.71
2017-10-06T23:10:49.564Z,10.59
2017-10-06T23:13:17.362Z,10.64
2017-10-06T23:15:45.822Z,10.62
2017-10-06T23:18:13.881Z,10.46
2017-10-06T23:20:42.012Z,10.50
2017-10-06T23:23:10.124Z,10.54
2017-10-06T23:25:37.717Z,10.65
2017-10-06T23:28:06.247Z,10.59
2017-10-06T23:30:34.950Z,10.66
2017-10-06T23:33:03.380Z,10.89
2017-10-06T23:35:31.559Z,10.97
2017-10-06T23:37:59.686Z,11.07
2017-10-06T23:40:31.578Z,11.03
2017-10-06T23:42:59.618Z,11.03
2017-10-06T23:45:27.640Z,11.21
2017-10-06T23:47:56.571Z,11.09
2017-10-06T23:50:24.714Z,11.24
2017-10-06T23:52:53.339Z,11.15
2017-10-06T23:55:22.284Z,11.20
2017-10-06T23:57:50.710Z,11.12
